createdAt,value
2018-02-25T00:01:34.660Z,-1.70
2018-02-25T00:04:01.023Z,-1.30
2018-02-25T00:06:27.774Z,-1.50
2018-02-25T00:08:54.216Z,-1.40
2018-02-25T00:11:20.538Z,-0.90
2018-02-25T00:13:46.886Z,-1.50
2018-02-25T00:16:13.178Z,-1.80
2018-02-25T00:18:39.631Z,-1.30
2018-02-25T00:21:06.080Z,-1.40
2018-02-25T00:23:36.102Z,-1.90
2018-02-25T00:26:02.195Z,-1.50
2018-02-25T00:28:28.275Z,-1.50
2018-02-25T00:30:54.384Z,-1.50
2018-02-25T00:33:20.466Z,-1.60
2018-02-25T00:35:46.593Z,-1.40
2018-02-25T00:38:12.639Z,-1.60
2018-02-25T00:40:38.775Z,-1.60
2018-02-25T00:43:05.089Z,-1.60
2018-02-25T00:45:31.328Z,-1.70
2018-02-25T00:47:57.397Z,-1.70
2018-02-25T00:50:23.451Z,-1.70
2018-02-25T00:52:50.250Z,-1.80
2018-02-25T00:55:16.314Z,-1.80
2018-02-25T00:57:56.638Z,-1.80
2018-02-25T01:00:22.799Z,-1.80
2018-02-25T01:02:48.867Z,-1.80
2018-02-25T01:05:15.053Z,-1.80
2018-02-25T01:07:41.151Z,-1.70
2018-02-25T01:10:07.226Z,-1.80
2018-02-25T01:12:33.312Z,-1.90
2018-02-25T01:14:59.350Z,-1.90
2018-02-25T01:17:25.373Z,-1.90
2018-02-25T01:19:51.415Z,-1.90
2018-02-25T01:22:18.570Z,-2.00
2018-02-25T01:24:44.627Z,-2.00
2018-02-25T01:27:10.675Z,-1.70
2018-02-25T01:29:36.696Z,-1.60
2018-02-25T01:32:02.739Z,-2.00
2018-02-25T01:34:28.783Z,-2.00
2018-02-25T01:36:54.930Z,-2.00
2018-02-25T01:39:21.065Z,-2.00
2018-02-25T01:41:47.286Z,-2.00
2018-02-25T01:44:13.392Z,-2.10
2018-02-25T01:46:39.617Z,-2.10
2018-02-25T01:49:05.751Z,-1.70
2018-02-25T01:51:31.853Z,-2.50
2018-02-25T01:53:58.024Z,-2.10
2018-02-25T01:56:24.845Z,-2.20
2018-02-25T01:58:50.937Z,-2.70
2018-02-25T02:01:17.114Z,-2.30
2018-02-25T02:03:44.000Z,-2.30
2018-02-25T02:06:10.913Z,-2.30
2018-02-25T02:08:37.186Z,-2.50
2018-02-25T02:11:04.074Z,-2.30
2018-02-25T02:13:30.313Z,-2.60
2018-02-25T02:15:56.422Z,-2.40
2018-02-25T02:18:22.535Z,-2.30
2018-02-25T02:20:49.405Z,-2.30
2018-02-25T02:23:15.849Z,-1.70
2018-02-25T02:25:41.965Z,-1.80
2018-02-25T02:28:08.090Z,-1.80
2018-02-25T02:30:34.278Z,-2.50
2018-02-25T02:33:01.101Z,-2.40
2018-02-25T02:35:27.187Z,-2.50
2018-02-25T02:37:53.265Z,-2.50
2018-02-25T02:40:24.515Z,-2.50
2018-02-25T02:42:50.649Z,-2.50
2018-02-25T02:45:16.776Z,-2.30
2018-02-25T02:47:43.290Z,-2.60
2018-02-25T02:50:10.447Z,-2.90
2018-02-25T02:52:37.336Z,-2.70
2018-02-25T02:55:03.459Z,-3.00
2018-02-25T02:57:30.351Z,-2.70
2018-02-25T02:59:56.496Z,-3.20
2018-02-25T03:02:22.608Z,-2.80
2018-02-25T03:04:48.732Z,-2.50
2018-02-25T03:07:14.942Z,-2.30
2018-02-25T03:09:41.050Z,-2.40
2018-02-25T03:12:08.243Z,-1.90
2018-02-25T03:14:34.343Z,-2.80
2018-02-25T03:17:00.454Z,-3.00
2018-02-25T03:19:27.257Z,-2.80
2018-02-25T03:21:53.293Z,-2.40
2018-02-25T03:24:19.369Z,-3.20
2018-02-25T03:26:46.145Z,-2.80
2018-02-25T03:29:12.232Z,-2.80
2018-02-25T03:31:38.270Z,-2.80
2018-02-25T03:34:04.318Z,-2.50
2018-02-25T03:36:30.369Z,-2.90
2018-02-25T03:38:57.162Z,-2.90
2018-02-25T03:41:23.207Z,-2.90
2018-02-25T03:43:49.260Z,-2.20
2018-02-25T03:46:15.284Z,-2.90
2018-02-25T03:48:41.330Z,-2.90
2018-02-25T03:51:07.363Z,-2.90
2018-02-25T03:53:34.382Z,-3.00
2018-02-25T03:56:01.192Z,-3.00
2018-02-25T03:58:27.221Z,-3.30
2018-02-25T04:00:53.283Z,-3.00
2018-02-25T04:03:19.313Z,-3.10
2018-02-25T04:05:47.482Z,-3.10
2018-02-25T04:08:13.663Z,-3.10
2018-02-25T04:10:39.713Z,-3.20
2018-02-25T04:13:05.868Z,-3.20
2018-02-25T04:15:31.985Z,-3.20
2018-02-25T04:22:39.854Z,-2.80
2018-02-25T04:25:09.094Z,-3.60
2018-02-25T04:27:35.422Z,-3.30
2018-02-25T04:30:01.662Z,-3.30
2018-02-25T04:32:28.653Z,-3.20
2018-02-25T04:34:54.910Z,-3.30
2018-02-25T04:37:21.161Z,-3.30
2018-02-25T04:39:47.413Z,-3.30
2018-02-25T04:42:14.419Z,-3.30
2018-02-25T04:44:40.677Z,-3.30
2018-02-25T04:47:06.930Z,-2.50
2018-02-25T04:49:33.165Z,-3.30
2018-02-25T04:51:59.389Z,-3.40
2018-02-25T04:54:25.645Z,-3.30
2018-02-25T04:56:51.847Z,-3.20
2018-02-25T04:59:18.081Z,-3.30
2018-02-25T05:01:45.046Z,-3.40
2018-02-25T05:04:12.022Z,-3.50
2018-02-25T05:06:38.252Z,-3.40
2018-02-25T05:09:05.282Z,-3.40
2018-02-25T05:11:32.971Z,-3.40
2018-02-25T05:13:59.222Z,-3.40
2018-02-25T05:16:26.147Z,-3.50
2018-02-25T05:18:52.271Z,-3.20
2018-02-25T05:21:18.592Z,-3.00
2018-02-25T05:23:44.642Z,-3.30
2018-02-25T05:26:10.922Z,-3.20
2018-02-25T05:28:38.007Z,-3.60
2018-02-25T05:31:04.127Z,-3.60
2018-02-25T05:33:30.257Z,-3.10
2018-02-25T05:35:56.463Z,-4.20
2018-02-25T05:38:22.550Z,-3.70
2018-02-25T05:40:49.097Z,-3.70
2018-02-25T05:43:15.327Z,-3.60
2018-02-25T05:45:41.552Z,-3.60
2018-02-25T05:48:08.597Z,-3.70
2018-02-25T05:50:35.640Z,-3.70
2018-02-25T05:53:01.774Z,-3.20
2018-02-25T05:55:28.629Z,-3.70
2018-02-25T05:57:54.726Z,-3.70
2018-02-25T06:00:20.830Z,-3.70
2018-02-25T06:02:47.013Z,-3.40
2018-02-25T06:05:13.128Z,-3.50
2018-02-25T06:07:39.203Z,-3.70
2018-02-25T06:10:05.245Z,-3.70
2018-02-25T06:12:32.390Z,-3.70
2018-02-25T06:14:58.658Z,-3.80
2018-02-25T06:17:24.971Z,-4.00
2018-02-25T06:19:51.260Z,-3.90
2018-02-25T06:22:17.545Z,-3.10
2018-02-25T06:24:43.832Z,-3.50
2018-02-25T06:27:10.104Z,-3.80
2018-02-25T06:29:36.332Z,-3.70
2018-02-25T06:32:02.743Z,-3.80
2018-02-25T06:34:29.056Z,-3.90
2018-02-25T06:36:55.370Z,-3.90
2018-02-25T06:39:21.643Z,-3.90
2018-02-25T06:41:49.022Z,-3.90
2018-02-25T06:44:15.274Z,-4.10
2018-02-25T06:46:41.960Z,-3.80
2018-02-25T06:49:08.285Z,-3.70
2018-02-25T06:51:35.343Z,-3.90
2018-02-25T06:54:01.659Z,-4.20
2018-02-25T06:56:27.987Z,-3.90
2018-02-25T06:58:54.233Z,-3.90
2018-02-25T07:01:20.488Z,-4.00
2018-02-25T07:03:46.912Z,-4.00
2018-02-25T07:06:13.162Z,-4.30
2018-02-25T07:08:39.485Z,-4.00
2018-02-25T07:11:06.521Z,-3.90
2018-02-25T07:13:32.627Z,-4.30
2018-02-25T07:16:12.026Z,-3.90
2018-02-25T07:18:38.157Z,-3.90
2018-02-25T07:21:04.266Z,-3.90
2018-02-25T07:23:30.460Z,-3.90
2018-02-25T07:26:01.107Z,-4.00
2018-02-25T07:28:27.338Z,-3.80
2018-02-25T07:30:55.458Z,-3.80
2018-02-25T07:33:30.145Z,-3.80
2018-02-25T07:36:02.897Z,-3.80
2018-02-25T07:38:29.740Z,-3.70
2018-02-25T07:40:55.801Z,-3.70
2018-02-25T07:43:28.269Z,-3.80
2018-02-25T07:45:55.063Z,-3.70
2018-02-25T07:48:29.718Z,-3.60
2018-02-25T07:50:55.756Z,-3.70
2018-02-25T07:53:21.802Z,-3.70
2018-02-25T07:55:47.999Z,-3.60
2018-02-25T07:58:14.801Z,-3.60
2018-02-25T08:00:40.862Z,-3.40
2018-02-25T08:03:06.905Z,-3.50
2018-02-25T08:05:32.965Z,-3.00
2018-02-25T08:07:59.001Z,-3.40
2018-02-25T08:10:25.057Z,-3.40
2018-02-25T08:12:51.847Z,-3.40
2018-02-25T08:15:19.907Z,-3.40
2018-02-25T08:17:53.600Z,-3.30
2018-02-25T08:20:19.667Z,-3.30
2018-02-25T08:22:45.807Z,-3.10
2018-02-25T08:25:11.949Z,-3.00
2018-02-25T08:27:38.132Z,-2.90
2018-02-25T08:30:05.026Z,-2.50
2018-02-25T08:32:31.666Z,-2.40
2018-02-25T08:34:58.050Z,-2.20
2018-02-25T08:37:24.161Z,-1.90
2018-02-25T08:39:50.262Z,-1.60
2018-02-25T08:42:17.080Z,-1.40
2018-02-25T08:44:51.066Z,-1.10
2018-02-25T08:47:17.130Z,-1.30
2018-02-25T08:49:43.461Z,-1.10
2018-02-25T08:52:09.625Z,-1.50
2018-02-25T08:54:35.716Z,-1.60
2018-02-25T08:57:06.815Z,-1.10
2018-02-25T08:59:33.075Z,-1.30
2018-02-25T09:01:59.302Z,-1.30
2018-02-25T09:07:19.305Z,-1.50
2018-02-25T09:09:46.257Z,-1.40
2018-02-25T09:12:13.230Z,-1.40
2018-02-25T09:14:40.210Z,-1.40
2018-02-25T09:17:06.446Z,-1.40
2018-02-25T09:19:32.745Z,-1.40
2018-02-25T09:21:59.761Z,-1.40
2018-02-25T09:24:26.043Z,-1.40
2018-02-25T09:26:52.389Z,-1.40
2018-02-25T09:29:21.428Z,-1.20
2018-02-25T09:31:47.719Z,-1.20
2018-02-25T09:34:19.573Z,-1.10
2018-02-25T09:36:45.943Z,-1.20
2018-02-25T09:39:20.590Z,-1.10
2018-02-25T09:41:47.627Z,-1.00
2018-02-25T09:44:35.536Z,-1.00
2018-02-25T09:47:27.879Z,-1.10
2018-02-25T09:49:54.579Z,-1.00
2018-02-25T09:52:20.680Z,-1.00
2018-02-25T09:54:48.028Z,-0.80
2018-02-25T09:57:14.555Z,-0.80
2018-02-25T09:59:40.821Z,-1.10
2018-02-25T10:02:07.046Z,-0.90
2018-02-25T10:04:33.194Z,-0.80
2018-02-25T10:06:59.302Z,-0.80
2018-02-25T10:09:26.170Z,-0.80
2018-02-25T10:11:52.270Z,-0.90
2018-02-25T10:14:18.398Z,-0.90
2018-02-25T10:16:45.138Z,-0.80
2018-02-25T10:22:05.193Z,-0.90
2018-02-25T10:24:35.543Z,-0.80
2018-02-25T10:27:02.491Z,-0.80
2018-02-25T10:29:28.590Z,-0.80
2018-02-25T10:31:54.666Z,-0.30
2018-02-25T10:34:21.787Z,-0.90
2018-02-25T10:36:49.772Z,-1.00
2018-02-25T10:39:15.829Z,-0.90
2018-02-25T10:44:43.090Z,-0.70
2018-02-25T10:47:09.473Z,-0.70
2018-02-25T10:49:37.395Z,-1.10
2018-02-25T10:52:06.810Z,-0.70
2018-02-25T10:54:36.327Z,-0.30
2018-02-25T10:57:06.988Z,-0.70
2018-02-25T10:59:33.970Z,-0.60
2018-02-25T11:02:06.966Z,-0.40
2018-02-25T11:04:33.276Z,-0.70
2018-02-25T11:07:00.795Z,-0.30
2018-02-25T11:09:27.206Z,-0.60
2018-02-25T11:11:54.245Z,-0.20
2018-02-25T11:14:21.692Z,0.60
2018-02-25T11:16:48.032Z,-0.60
2018-02-25T11:24:54.126Z,0.30
2018-02-25T11:27:20.421Z,0.30
2018-02-25T11:29:47.561Z,0.40
2018-02-25T11:32:13.966Z,0.40
2018-02-25T11:34:40.304Z,0.50
2018-02-25T11:37:06.734Z,0.70
2018-02-25T11:39:33.737Z,0.80
2018-02-25T11:42:06.071Z,0.80
2018-02-25T11:44:32.134Z,0.20
2018-02-25T11:46:58.250Z,0.90
2018-02-25T11:49:24.437Z,0.90
2018-02-25T11:51:50.647Z,1.00
2018-02-25T11:54:17.572Z,1.10
2018-02-25T11:56:44.504Z,1.10
2018-02-25T11:59:10.654Z,1.10
2018-02-25T12:01:36.780Z,1.50
2018-02-25T12:04:09.085Z,1.30
2018-02-25T12:06:35.944Z,1.40
2018-02-25T12:09:02.086Z,1.40
2018-02-25T12:11:49.635Z,1.30
2018-02-25T12:14:15.816Z,1.40
2018-02-25T12:16:41.935Z,1.30
2018-02-25T12:19:08.611Z,1.50
2018-02-25T12:21:37.123Z,2.10
2018-02-25T12:24:09.429Z,1.50
2018-02-25T12:26:36.340Z,1.80
2018-02-25T12:29:02.560Z,1.40
2018-02-25T12:31:28.703Z,1.90
2018-02-25T12:33:54.844Z,1.90
2018-02-25T12:36:21.859Z,1.80
2018-02-25T12:38:47.996Z,2.00
2018-02-25T12:41:14.847Z,2.00
2018-02-25T12:43:46.013Z,2.00
2018-02-25T12:46:12.215Z,2.00
2018-02-25T12:48:38.446Z,1.90
2018-02-25T12:51:07.885Z,1.90
2018-02-25T12:53:34.849Z,1.70
2018-02-25T12:56:12.488Z,2.20
2018-02-25T12:58:38.876Z,2.70
2018-02-25T13:01:05.163Z,2.30
2018-02-25T13:03:31.785Z,2.30
2018-02-25T13:05:58.231Z,1.20
2018-02-25T13:08:24.654Z,2.30
2018-02-25T13:10:51.063Z,3.20
2018-02-25T13:13:17.897Z,2.20
2018-02-25T13:15:47.408Z,2.30
2018-02-25T13:18:14.435Z,2.30
2018-02-25T13:20:41.807Z,2.70
2018-02-25T13:23:08.105Z,1.60
2018-02-25T13:25:34.394Z,1.70
2018-02-25T13:28:01.400Z,2.20
2018-02-25T13:30:27.963Z,2.00
2018-02-25T13:32:54.664Z,2.50
2018-02-25T13:35:21.720Z,2.50
2018-02-25T13:37:48.603Z,2.50
2018-02-25T13:40:14.877Z,2.60
2018-02-25T13:42:41.237Z,2.40
2018-02-25T13:45:08.129Z,2.60
2018-02-25T13:47:34.483Z,2.60
2018-02-25T13:50:00.986Z,2.70
2018-02-25T13:52:27.453Z,2.80
2018-02-25T13:54:54.594Z,2.70
2018-02-25T13:57:21.014Z,2.70
2018-02-25T13:59:48.122Z,2.60
2018-02-25T14:02:14.398Z,2.60
2018-02-25T14:04:40.678Z,2.60
2018-02-25T14:07:06.937Z,2.50
2018-02-25T14:09:33.257Z,2.50
2018-02-25T14:12:01.820Z,2.30
2018-02-25T14:14:30.431Z,2.60
2018-02-25T14:16:57.558Z,2.50
2018-02-25T14:19:23.831Z,2.50
2018-02-25T14:21:51.410Z,2.60
2018-02-25T14:24:17.723Z,2.00
2018-02-25T14:29:22.300Z,2.70
2018-02-25T14:31:49.553Z,2.80
2018-02-25T14:34:16.283Z,2.80
2018-02-25T14:36:42.908Z,2.60
2018-02-25T14:39:10.112Z,2.70
2018-02-25T14:41:36.380Z,2.40
2018-02-25T14:44:02.814Z,2.40
2018-02-25T14:46:29.103Z,2.70
2018-02-25T14:48:55.560Z,2.60
2018-02-25T14:51:24.928Z,2.40
2018-02-25T14:53:51.487Z,2.30
2018-02-25T14:56:17.768Z,2.60
2018-02-25T14:58:44.019Z,2.60
2018-02-25T15:01:11.952Z,2.50
2018-02-25T15:03:38.340Z,2.40
2018-02-25T15:06:05.571Z,2.40
2018-02-25T15:08:32.523Z,2.10
2018-02-25T15:10:59.849Z,2.50
2018-02-25T15:13:26.256Z,2.60
2018-02-25T15:15:52.560Z,2.10
2018-02-25T15:18:18.943Z,2.30
2018-02-25T15:20:45.270Z,2.30
2018-02-25T15:23:11.578Z,2.10
2018-02-25T15:25:38.620Z,2.10
2018-02-25T15:28:05.716Z,2.10
2018-02-25T15:30:32.004Z,1.90
2018-02-25T15:32:58.318Z,2.00
2018-02-25T15:35:24.610Z,1.90
2018-02-25T15:37:50.920Z,1.80
2018-02-25T15:40:17.182Z,1.90
2018-02-25T15:42:43.517Z,1.90
2018-02-25T15:45:10.841Z,1.80
2018-02-25T15:47:37.992Z,1.70
2018-02-25T15:50:04.300Z,2.10
2018-02-25T15:52:30.587Z,1.60
2018-02-25T15:54:56.903Z,1.60
2018-02-25T15:57:23.977Z,1.50
2018-02-25T15:59:51.195Z,1.40
2018-02-25T16:02:18.355Z,1.30
2018-02-25T16:04:44.684Z,1.30
2018-02-25T16:07:11.778Z,0.90
2018-02-25T16:09:38.114Z,1.30
2018-02-25T16:12:04.455Z,1.30
2018-02-25T16:14:31.508Z,1.10
2018-02-25T16:16:57.921Z,1.10
2018-02-25T16:19:24.269Z,1.40
2018-02-25T16:21:50.574Z,0.90
2018-02-25T16:24:16.834Z,0.90
2018-02-25T16:26:43.179Z,0.90
2018-02-25T16:29:09.569Z,0.90
2018-02-25T16:31:35.855Z,0.90
2018-02-25T16:34:02.238Z,1.20
2018-02-25T16:36:28.611Z,0.70
2018-02-25T16:38:55.008Z,1.00
2018-02-25T16:41:21.359Z,1.00
2018-02-25T16:43:47.685Z,0.90
2018-02-25T16:46:18.720Z,0.60
2018-02-25T16:48:45.072Z,0.80
2018-02-25T16:51:11.662Z,0.70
2018-02-25T16:53:38.040Z,0.80
2018-02-25T16:56:05.615Z,0.70
2018-02-25T16:58:31.987Z,0.70
2018-02-25T17:00:58.271Z,0.70
2018-02-25T17:03:26.239Z,0.50
2018-02-25T17:05:53.295Z,0.40
2018-02-25T17:08:19.634Z,0.60
2018-02-25T17:10:45.938Z,0.30
2018-02-25T17:13:12.252Z,0.40
2018-02-25T17:15:38.674Z,0.20
2018-02-25T17:18:05.125Z,-0.20
2018-02-25T17:20:31.412Z,0.00
2018-02-25T17:23:00.989Z,0.70
2018-02-25T17:25:30.730Z,0.10
2018-02-25T17:27:57.733Z,0.10
2018-02-25T17:30:23.967Z,0.10
2018-02-25T17:32:50.230Z,0.00
2018-02-25T17:35:16.466Z,0.10
2018-02-25T17:37:42.854Z,0.10
2018-02-25T17:40:10.695Z,0.10
2018-02-25T17:42:36.964Z,0.10
2018-02-25T17:45:03.275Z,0.10
2018-02-25T17:47:31.786Z,-0.10
2018-02-25T17:49:58.051Z,-0.10
2018-02-25T17:52:24.330Z,-0.10
2018-02-25T17:54:51.510Z,-0.30
2018-02-25T17:57:17.758Z,-0.20
2018-02-25T17:59:44.042Z,0.10
2018-02-25T18:02:10.514Z,0.30
2018-02-25T18:04:36.804Z,-0.30
2018-02-25T18:07:03.122Z,-0.40
2018-02-25T18:09:29.366Z,-0.40
2018-02-25T18:11:56.374Z,-0.70
2018-02-25T18:14:22.618Z,-0.70
2018-02-25T18:16:48.883Z,-0.70
2018-02-25T18:19:15.248Z,-0.90
2018-02-25T18:21:41.526Z,-0.60
2018-02-25T18:24:07.795Z,0.10
2018-02-25T18:26:34.079Z,-0.60
2018-02-25T18:29:01.094Z,-0.50
2018-02-25T18:31:27.380Z,-0.90
2018-02-25T18:33:54.411Z,-0.60
2018-02-25T18:36:20.674Z,-0.30
2018-02-25T18:38:47.796Z,-0.70
2018-02-25T18:41:14.394Z,-0.80
2018-02-25T18:43:40.786Z,-1.10
2018-02-25T18:46:08.259Z,-0.80
2018-02-25T18:48:35.358Z,-0.90
2018-02-25T18:51:07.309Z,-1.00
2018-02-25T18:53:33.897Z,-1.00
2018-02-25T18:56:00.956Z,-1.00
2018-02-25T18:58:28.199Z,-1.00
2018-02-25T19:00:54.488Z,-1.00
2018-02-25T19:03:20.871Z,-1.00
2018-02-25T19:05:47.210Z,-0.60
2018-02-25T19:08:13.542Z,-0.70
2018-02-25T19:10:41.367Z,-1.00
2018-02-25T19:13:09.275Z,-1.10
2018-02-25T19:15:36.488Z,-1.30
2018-02-25T19:18:02.891Z,-1.30
2018-02-25T19:20:29.409Z,-1.10
2018-02-25T19:23:10.470Z,-1.20
2018-02-25T19:25:46.242Z,-1.00
2018-02-25T19:28:13.171Z,-1.10
2018-02-25T19:30:47.103Z,-1.40
2018-02-25T19:33:13.834Z,-1.20
2018-02-25T19:35:46.883Z,-1.10
2018-02-25T19:38:19.116Z,-1.00
2018-02-25T19:40:51.334Z,-1.10
2018-02-25T19:43:17.484Z,-1.20
2018-02-25T19:45:55.145Z,-0.80
2018-02-25T19:48:22.114Z,-1.30
2018-02-25T19:50:48.304Z,-1.30
2018-02-25T19:53:16.050Z,-1.20
2018-02-25T19:55:42.222Z,-1.20
2018-02-25T19:58:11.353Z,-0.20
2018-02-25T20:00:40.813Z,-1.20
2018-02-25T20:03:07.080Z,-1.50
2018-02-25T20:05:33.255Z,-1.20
2018-02-25T20:08:00.420Z,-1.60
2018-02-25T20:10:26.578Z,-1.30
2018-02-25T20:12:53.387Z,-1.30
2018-02-25T20:15:19.487Z,-0.90
2018-02-25T20:17:46.346Z,-1.40
2018-02-25T20:20:15.836Z,-0.90
2018-02-25T20:22:41.976Z,-1.50
2018-02-25T20:25:08.979Z,-1.40
2018-02-25T20:27:35.106Z,-1.10
2018-02-25T20:30:01.176Z,-1.50
2018-02-25T20:32:27.439Z,-1.40
2018-02-25T20:34:53.565Z,-1.50
2018-02-25T20:37:19.618Z,-1.60
2018-02-25T20:39:46.698Z,-1.60
2018-02-25T20:42:13.543Z,-1.70
2018-02-25T20:44:40.430Z,-1.70
2018-02-25T20:47:06.606Z,-2.00
2018-02-25T20:49:32.704Z,-1.70
2018-02-25T20:51:58.754Z,-1.70
2018-02-25T20:54:24.840Z,-1.80
2018-02-25T20:56:51.268Z,-1.80
2018-02-25T20:59:18.483Z,-1.30
2018-02-25T21:01:46.131Z,-1.80
2018-02-25T21:04:13.055Z,-1.80
2018-02-25T21:06:39.194Z,-1.90
2018-02-25T21:09:05.306Z,-1.50
2018-02-25T21:11:31.512Z,-1.90
2018-02-25T21:13:57.649Z,-2.30
2018-02-25T21:16:23.746Z,-1.90
2018-02-25T21:18:50.872Z,-2.00
2018-02-25T21:21:16.994Z,-2.00
2018-02-25T21:23:43.146Z,-2.00
2018-02-25T21:26:09.374Z,-2.50
2018-02-25T21:28:35.588Z,-2.00
2018-02-25T21:31:01.981Z,-2.10
2018-02-25T21:33:28.284Z,-1.70
2018-02-25T21:35:54.831Z,-2.40
2018-02-25T21:38:20.935Z,-2.10
2018-02-25T21:40:47.488Z,-2.10
2018-02-25T21:43:14.737Z,-2.20
2018-02-25T21:45:41.121Z,-2.50
2018-02-25T21:48:07.980Z,-2.20
2018-02-25T21:50:34.887Z,-2.20
2018-02-25T21:53:01.092Z,-1.80
2018-02-25T21:55:27.597Z,-1.90
2018-02-25T21:58:01.098Z,-2.30
2018-02-25T22:00:45.191Z,-2.10
2018-02-25T22:03:18.222Z,-2.30
2018-02-25T22:05:45.033Z,-2.30
2018-02-25T22:08:11.973Z,-2.40
2018-02-25T22:10:38.038Z,-2.10
2018-02-25T22:13:04.826Z,-2.40
2018-02-25T22:15:30.922Z,-1.90
2018-02-25T22:17:57.718Z,-2.40
2018-02-25T22:20:23.851Z,-2.30
2018-02-25T22:22:49.915Z,-2.20
2018-02-25T22:25:15.972Z,-2.80
2018-02-25T22:27:42.072Z,-2.40
2018-02-25T22:30:08.135Z,-2.80
2018-02-25T22:32:34.178Z,-2.20
2018-02-25T22:35:00.238Z,-2.00
2018-02-25T22:37:27.086Z,-2.60
2018-02-25T22:39:53.121Z,-2.60
2018-02-25T22:42:19.165Z,-2.20
2018-02-25T22:44:45.994Z,-2.60
2018-02-25T22:47:12.082Z,-2.60
2018-02-25T22:49:38.150Z,-2.90
2018-02-25T22:52:04.943Z,-2.60
2018-02-25T22:54:32.087Z,-2.60
2018-02-25T22:56:58.151Z,-2.60
2018-02-25T22:59:24.950Z,-2.70
2018-02-25T23:01:51.751Z,-2.70
2018-02-25T23:04:18.543Z,-2.70
2018-02-25T23:06:44.709Z,-3.10
2018-02-25T23:09:10.838Z,-2.70
2018-02-25T23:11:38.903Z,-2.80
2018-02-25T23:14:04.990Z,-2.80
2018-02-25T23:16:31.054Z,-2.60
2018-02-25T23:18:57.111Z,-2.70
2018-02-25T23:21:23.203Z,-2.70
2018-02-25T23:23:57.072Z,-2.70
2018-02-25T23:26:23.162Z,-2.70
2018-02-25T23:28:49.989Z,-2.80
2018-02-25T23:31:16.154Z,-2.80
2018-02-25T23:33:42.958Z,-2.80
2018-02-25T23:36:11.682Z,-2.80
2018-02-25T23:38:37.739Z,-2.70
2018-02-25T23:41:03.833Z,-2.70
2018-02-25T23:43:29.891Z,-2.70
2018-02-25T23:45:55.942Z,-2.70
2018-02-25T23:48:22.108Z,-2.50
2018-02-25T23:50:48.259Z,-2.70
2018-02-25T23:53:14.318Z,-2.10
2018-02-25T23:55:40.390Z,-2.70
2018-02-25T23:58:07.223Z,-2.70
